Terminal Aerodrome Forecast
Issued by NWS Melbourne, FL

Home | Current Version | Previous Version | Text Only | Print | Product List | Glossary On
Versions: 1 2 3 4 5 6 7 8 9 10 11 12 13 14 15 16 17
157
FTUS42 KMLB 030532
TAFDAB
TAF
KDAB 030532Z 0306/0406 20006KT P6SM FEW030 BKN100 OVC250
     FM030900 19004KT P6SM SCT025 BKN120
      TEMPO 0309/0312 BKN025
     FM031500 23010KT P6SM SCT025
     FM032000 24009KT P6SM VCTS BKN035CB=

USA.gov is the U.S. government's official web portal to all federal, state and local government web resources and services.